createdAt,value
2018-04-27T00:00:34.120Z,5.10
2018-04-27T00:06:38.613Z,5.67
2018-04-27T00:12:43.033Z,5.17
2018-04-27T00:18:47.413Z,5.83
2018-04-27T00:24:51.815Z,4.73
2018-04-27T00:30:56.934Z,5.03
2018-04-27T00:37:01.348Z,5.40
2018-04-27T00:43:05.842Z,5.53
2018-04-27T00:49:10.985Z,5.50
2018-04-27T00:55:15.387Z,6.20
2018-04-27T01:01:19.746Z,6.07
2018-04-27T01:07:24.110Z,7.00
2018-04-27T01:13:28.604Z,5.97
2018-04-27T01:19:33.015Z,6.17
2018-04-27T01:25:37.454Z,5.27
2018-04-27T01:31:41.831Z,7.63
2018-04-27T01:37:46.171Z,5.60
2018-04-27T01:43:50.861Z,6.47
2018-04-27T01:49:55.254Z,6.30
2018-04-27T01:55:59.591Z,8.43
2018-04-27T02:02:03.975Z,7.90
2018-04-27T02:08:09.153Z,7.60
2018-04-27T02:14:13.527Z,7.80
2018-04-27T02:20:18.652Z,7.10
2018-04-27T02:26:23.019Z,8.20
2018-04-27T02:32:27.440Z,7.80
2018-04-27T02:38:31.968Z,7.40
2018-04-27T02:44:37.363Z,7.77
2018-04-27T02:50:41.728Z,7.90
2018-04-27T02:56:46.906Z,8.30
2018-04-27T03:02:51.268Z,8.27
2018-04-27T03:08:55.714Z,7.70
2018-04-27T03:15:00.080Z,7.93
2018-04-27T03:21:04.720Z,8.87
2018-04-27T03:27:09.140Z,8.60
2018-04-27T03:33:13.598Z,9.97
2018-04-27T03:39:18.021Z,8.50
2018-04-27T03:45:22.473Z,8.33
2018-04-27T03:51:26.824Z,9.33
2018-04-27T03:57:31.208Z,9.70
2018-04-27T04:03:53.491Z,8.50
2018-04-27T04:09:57.860Z,9.97
2018-04-27T04:16:03.091Z,8.73
2018-04-27T04:22:07.477Z,8.77
2018-04-27T04:28:11.821Z,7.90
2018-04-27T04:34:16.199Z,7.60
2018-04-27T04:40:20.566Z,8.57
2018-04-27T04:46:24.974Z,8.07
2018-04-27T04:52:29.409Z,7.43
2018-04-27T04:58:33.762Z,8.37
2018-04-27T05:04:38.976Z,8.73
2018-04-27T05:10:43.469Z,7.63
2018-04-27T05:16:47.861Z,8.57
2018-04-27T05:22:52.241Z,9.10
2018-04-27T05:28:56.612Z,8.63
2018-04-27T05:35:01.070Z,8.33
2018-04-27T05:41:05.520Z,8.37
2018-04-27T05:47:10.700Z,8.20
2018-04-27T05:53:15.054Z,8.03
2018-04-27T05:59:20.931Z,7.53
2018-04-27T06:05:25.273Z,8.03
2018-04-27T06:11:30.398Z,8.40
2018-04-27T06:17:34.884Z,6.70
2018-04-27T06:23:39.221Z,7.97
2018-04-27T06:29:44.346Z,7.50
2018-04-27T06:35:48.695Z,6.20
2018-04-27T06:41:53.093Z,6.53
2018-04-27T06:47:57.463Z,6.70
2018-04-27T06:54:01.963Z,6.23
2018-04-27T07:00:06.516Z,6.57
2018-04-27T07:06:10.884Z,6.50
2018-04-27T07:12:15.307Z,6.30
2018-04-27T07:18:19.708Z,5.77
2018-04-27T07:24:24.160Z,6.57
2018-04-27T07:30:28.564Z,7.47
2018-04-27T07:36:33.781Z,5.60
2018-04-27T07:42:38.154Z,5.73
2018-04-27T07:48:42.558Z,5.03
2018-04-27T07:54:46.916Z,6.93
2018-04-27T08:00:51.274Z,6.83
2018-04-27T08:06:55.669Z,6.00
2018-04-27T08:13:00.091Z,6.10
2018-04-27T08:19:05.438Z,6.37
2018-04-27T08:25:09.807Z,5.73
2018-04-27T08:31:14.162Z,5.23
2018-04-27T08:37:18.512Z,5.20
2018-04-27T08:43:22.893Z,5.33
2018-04-27T08:49:27.265Z,3.97
2018-04-27T08:55:31.651Z,4.37
2018-04-27T09:01:36.206Z,5.17
2018-04-27T09:07:40.571Z,5.27
2018-04-27T09:13:44.938Z,4.20
2018-04-27T09:19:49.305Z,4.13
2018-04-27T09:25:53.678Z,3.23
2018-04-27T09:31:58.063Z,2.80
2018-04-27T09:38:02.735Z,3.10
2018-04-27T09:44:07.393Z,2.77
2018-04-27T09:50:11.785Z,2.63
2018-04-27T09:56:16.240Z,2.30
2018-04-27T10:02:21.340Z,2.57
2018-04-27T10:08:25.705Z,2.00
2018-04-27T10:14:30.077Z,1.70
2018-04-27T10:20:34.769Z,1.93
2018-04-27T10:26:39.175Z,1.77
2018-04-27T10:32:43.555Z,2.00
2018-04-27T10:38:48.009Z,1.70
2018-04-27T10:44:52.465Z,1.93
2018-04-27T10:50:56.815Z,1.70
2018-04-27T10:57:02.047Z,1.83
2018-04-27T11:03:06.689Z,1.93
2018-04-27T11:09:11.068Z,1.70
2018-04-27T11:15:16.201Z,1.60
2018-04-27T11:21:20.565Z,2.60
2018-04-27T11:27:25.022Z,1.97
2018-04-27T11:33:30.150Z,3.00
2018-04-27T11:39:35.103Z,2.00
2018-04-27T11:45:39.615Z,1.77
2018-04-27T11:51:43.970Z,2.00
2018-04-27T11:57:48.447Z,2.33
2018-04-27T12:03:52.808Z,1.90
2018-04-27T12:09:58.030Z,1.40
2018-04-27T12:16:02.812Z,1.70
2018-04-27T12:22:07.291Z,1.80
2018-04-27T12:28:11.747Z,2.00
2018-04-27T12:34:16.124Z,1.83
2018-04-27T12:40:20.498Z,1.63
2018-04-27T12:46:24.872Z,1.67
2018-04-27T12:52:29.270Z,1.97
2018-04-27T12:58:33.648Z,1.77
2018-04-27T13:04:38.098Z,1.90
2018-04-27T13:10:42.445Z,1.80
2018-04-27T13:16:47.655Z,1.57
2018-04-27T13:22:52.857Z,1.80
2018-04-27T13:28:57.230Z,2.33
2018-04-27T13:35:01.627Z,2.10
2018-04-27T13:41:06.133Z,2.70
2018-04-27T13:47:11.295Z,2.40
2018-04-27T13:53:15.760Z,1.90
2018-04-27T13:59:20.141Z,1.67
2018-04-27T14:05:24.630Z,1.90
2018-04-27T14:11:28.987Z,2.10
2018-04-27T14:17:33.903Z,2.60
2018-04-27T14:23:38.282Z,2.03
2018-04-27T14:29:42.629Z,2.00
2018-04-27T14:35:46.996Z,2.60
2018-04-27T14:41:52.208Z,2.20
2018-04-27T14:47:56.564Z,2.03
2018-04-27T14:54:00.963Z,2.47
2018-04-27T15:00:05.546Z,2.57
2018-04-27T15:06:09.908Z,3.03
2018-04-27T15:12:14.256Z,2.03
2018-04-27T15:18:20.270Z,1.90
2018-04-27T15:24:24.674Z,2.43
2018-04-27T15:30:29.036Z,2.47
2018-04-27T15:36:34.257Z,1.90
2018-04-27T15:42:38.731Z,2.23
2018-04-27T15:48:43.189Z,2.80
2018-04-27T15:54:47.564Z,1.90
2018-04-27T16:00:51.952Z,2.37
2018-04-27T16:06:56.320Z,2.10
2018-04-27T16:30:04.947Z,2.90
2018-04-27T16:36:09.466Z,2.47
2018-04-27T16:42:13.845Z,2.47
2018-04-27T16:48:18.378Z,2.30
2018-04-27T16:54:22.799Z,2.10
2018-04-27T17:00:27.179Z,2.33
2018-04-27T17:06:31.535Z,2.00
2018-04-27T17:12:36.771Z,1.90
2018-04-27T17:18:41.207Z,1.53
2018-04-27T17:24:45.689Z,1.60
2018-04-27T17:30:50.820Z,2.23
2018-04-27T17:36:55.311Z,1.60
2018-04-27T17:42:59.638Z,2.00
2018-04-27T17:49:04.043Z,1.63
2018-04-27T17:55:08.435Z,1.47
2018-04-27T18:01:12.856Z,1.50
2018-04-27T18:07:18.004Z,1.80
2018-04-27T18:13:22.360Z,1.80
2018-04-27T18:19:26.706Z,1.83
2018-04-27T18:25:31.124Z,2.13
2018-04-27T18:31:35.636Z,2.00
2018-04-27T18:37:39.994Z,1.87
2018-04-27T18:43:44.364Z,1.70
2018-04-27T18:49:48.731Z,2.00
2018-04-27T18:55:53.876Z,1.60
2018-04-27T19:01:58.271Z,1.70
2018-04-27T19:08:02.632Z,2.00
2018-04-27T19:14:07.231Z,2.03
2018-04-27T19:20:11.634Z,1.67
2018-04-27T19:26:16.069Z,2.37
2018-04-27T19:32:20.502Z,1.70
2018-04-27T19:38:25.678Z,2.03
2018-04-27T19:44:30.162Z,2.10
2018-04-27T19:50:36.556Z,1.83
2018-04-27T19:56:40.975Z,1.70
2018-04-27T20:02:45.370Z,2.00
2018-04-27T20:08:49.777Z,2.10
2018-04-27T20:14:54.175Z,1.80
2018-04-27T20:21:01.163Z,1.90
2018-04-27T20:27:06.241Z,1.90
2018-04-27T20:33:13.367Z,2.00
2018-04-27T20:39:17.746Z,1.50
2018-04-27T20:45:24.766Z,2.00
2018-04-27T20:51:29.180Z,1.80
2018-04-27T20:57:33.621Z,1.93
2018-04-27T21:03:38.503Z,2.40
2018-04-27T21:09:42.903Z,2.80
2018-04-27T21:15:48.551Z,3.50
2018-04-27T21:21:52.993Z,2.40
2018-04-27T21:27:57.413Z,2.90
2018-04-27T21:34:02.286Z,2.53
2018-04-27T21:40:07.458Z,2.47
2018-04-27T21:46:12.575Z,2.80
2018-04-27T21:52:17.778Z,3.30
2018-04-27T21:58:26.751Z,3.07
2018-04-27T22:04:31.131Z,2.47
2018-04-27T22:10:36.482Z,3.43
2018-04-27T22:16:43.562Z,3.73
2018-04-27T22:22:47.986Z,2.50
2018-04-27T22:28:53.328Z,3.00
2018-04-27T22:41:35.061Z,3.00
2018-04-27T22:54:46.564Z,3.37
2018-04-27T23:00:55.782Z,2.80
2018-04-27T23:07:02.189Z,2.40
2018-04-27T23:13:08.633Z,3.00
2018-04-27T23:19:14.285Z,3.40
2018-04-27T23:25:25.272Z,3.03
2018-04-27T23:31:33.971Z,4.03
2018-04-27T23:37:40.634Z,3.47
2018-04-27T23:50:10.024Z,3.13
2018-04-27T23:56:15.098Z,3.57
